createdAt,value
2023-08-11T00:01:46.955Z,-23693.41
2023-08-11T00:03:49.953Z,-23688.22
2023-08-11T00:05:54.633Z,-23689.63
2023-08-11T00:07:58.189Z,-23686.00
2023-08-11T00:10:00.889Z,-23683.16
2023-08-11T00:12:05.553Z,-23683.78
2023-08-11T00:14:08.303Z,-23680.31
2023-08-11T00:16:11.312Z,-23687.41
2023-08-11T00:18:14.089Z,-23685.53
2023-08-11T00:20:16.796Z,-23679.84
2023-08-11T00:22:19.422Z,-23676.56
2023-08-11T00:24:21.361Z,-23679.06
2023-08-11T00:26:24.076Z,-23675.13
2023-08-11T00:28:28.401Z,-23676.38
2023-08-11T00:30:30.362Z,-23674.34
2023-08-11T00:32:33.249Z,-23678.44
2023-08-11T00:34:36.509Z,-23672.91
2023-08-11T00:36:39.270Z,-23674.50
2023-08-11T00:38:42.025Z,-23671.81
2023-08-11T00:40:45.107Z,-23673.22
2023-08-11T00:42:50.567Z,-23672.13
2023-08-11T00:44:54.715Z,-23671.19
2023-08-11T00:46:57.974Z,-23676.69
2023-08-11T00:49:01.716Z,-23674.81
2023-08-11T00:51:06.608Z,-23672.75
2023-08-11T00:53:11.128Z,-23669.28
2023-08-11T00:55:14.912Z,-23668.19
2023-08-11T00:57:17.947Z,-23666.00
2023-08-11T00:59:20.690Z,-23668.97
2023-08-11T01:01:25.645Z,-23671.34
2023-08-11T01:03:28.498Z,-23673.88
2023-08-11T01:05:36.526Z,-23675.44
2023-08-11T01:07:43.932Z,-23674.66
2023-08-11T01:09:53.706Z,-23676.22
2023-08-11T01:12:07.659Z,-23672.59
2023-08-11T01:14:19.434Z,-23673.72
2023-08-11T01:16:25.830Z,-23673.41
2023-08-11T01:18:29.438Z,-23673.56
2023-08-11T01:20:32.455Z,-23674.66
2023-08-11T01:22:38.018Z,-23672.28
2023-08-11T01:24:43.588Z,-23667.09
2023-08-11T01:26:47.602Z,-23669.13
2023-08-11T01:28:54.681Z,-23667.09
2023-08-11T01:30:57.357Z,-23666.63
2023-08-11T01:33:00.166Z,-23664.25
2023-08-11T01:35:03.494Z,-23663.78
2023-08-11T01:37:05.793Z,-23660.16
2023-08-11T01:39:10.717Z,-23659.53
2023-08-11T01:41:15.650Z,-23660.16
2023-08-11T01:43:19.440Z,-23660.78
2023-08-11T01:45:23.306Z,-23661.41
2023-08-11T01:47:25.783Z,-23660.47
2023-08-11T01:49:29.335Z,-23661.72
2023-08-11T01:51:32.373Z,-23659.53
2023-08-11T01:53:35.450Z,-23660.47
2023-08-11T01:55:38.499Z,-23656.22
2023-08-11T01:57:51.995Z,-23655.59
2023-08-11T02:00:01.105Z,-23652.25
2023-08-11T02:02:04.206Z,-23647.53
2023-08-11T02:04:07.497Z,-23647.84
2023-08-11T02:06:09.497Z,-23651.16
2023-08-11T02:08:15.604Z,-23651.94
2023-08-11T02:10:18.257Z,-23653.06
2023-08-11T02:12:20.986Z,-23649.44
2023-08-11T02:14:25.081Z,-23651.94
2023-08-11T02:16:26.908Z,-23651.16
2023-08-11T02:18:29.826Z,-23651.63
2023-08-11T02:20:34.108Z,-23650.53
2023-08-11T02:22:36.937Z,-23648.47
2023-08-11T02:24:39.712Z,-23644.84
2023-08-11T02:26:42.449Z,-23645.97
2023-08-11T02:28:45.246Z,-23645.00
2023-08-11T02:30:49.348Z,-23645.97
2023-08-11T02:32:52.245Z,-23645.16
2023-08-11T02:34:55.841Z,-23640.91
2023-08-11T02:36:58.540Z,-23642.97
2023-08-11T02:39:01.436Z,-23641.53
2023-08-11T02:41:05.470Z,-23637.13
2023-08-11T02:43:08.330Z,-23634.59
2023-08-11T02:45:12.434Z,-23635.88
2023-08-11T02:47:16.665Z,-23635.88
2023-08-11T02:49:19.437Z,-23637.44
2023-08-11T02:51:21.302Z,-23638.88
2023-08-11T02:53:24.804Z,-23638.06
2023-08-11T02:55:27.524Z,-23637.75
2023-08-11T02:57:30.305Z,-23638.38
2023-08-11T02:59:33.237Z,-23636.81
2023-08-11T03:01:36.043Z,-23631.91
2023-08-11T03:03:40.911Z,-23633.03
2023-08-11T03:05:44.862Z,-23632.22
2023-08-11T03:07:47.599Z,-23632.06
2023-08-11T03:09:50.322Z,-23629.06
2023-08-11T03:11:53.103Z,-23629.25
2023-08-11T03:13:55.305Z,-23628.59
2023-08-11T03:15:59.976Z,-23628.91
2023-08-11T03:18:02.901Z,-23623.88
2023-08-11T03:20:13.638Z,-23624.66
2023-08-11T03:22:18.709Z,-23626.41
2023-08-11T03:24:21.554Z,-23626.41
2023-08-11T03:26:24.289Z,-23624.81
2023-08-11T03:28:27.002Z,-23627.66
2023-08-11T03:30:29.853Z,-23628.44
2023-08-11T03:32:32.599Z,-23623.88
2023-08-11T03:34:35.466Z,-23623.22
2023-08-11T03:36:39.446Z,-23627.34
2023-08-11T03:38:42.193Z,-23626.72
2023-08-11T03:40:44.928Z,-23626.41
2023-08-11T03:42:47.659Z,-23624.19
2023-08-11T03:44:50.520Z,-23623.06
2023-08-11T03:46:53.260Z,-23620.72
2023-08-11T03:48:55.973Z,-23622.28
2023-08-11T03:51:01.057Z,-23617.69
2023-08-11T03:53:05.380Z,-23621.03
2023-08-11T03:55:10.664Z,-23623.41
2023-08-11T03:57:14.136Z,-23622.91
2023-08-11T03:59:16.823Z,-23621.03
2023-08-11T04:01:19.547Z,-23625.75
2023-08-11T04:03:23.351Z,-23626.41
2023-08-11T04:05:26.348Z,-23628.13
2023-08-11T04:07:29.470Z,-23625.44
2023-08-11T04:09:35.276Z,-23625.91
2023-08-11T04:11:38.064Z,-23627.66
2023-08-11T04:13:40.880Z,-23624.50
2023-08-11T04:15:43.763Z,-23623.41
2023-08-11T04:17:46.453Z,-23628.28
2023-08-11T04:19:49.708Z,-23623.72
2023-08-11T04:21:52.449Z,-23626.06
2023-08-11T04:23:57.397Z,-23627.34
2023-08-11T04:26:03.213Z,-23627.03
2023-08-11T04:28:05.199Z,-23626.06
2023-08-11T04:30:09.549Z,-23625.75
2023-08-11T04:32:12.427Z,-23626.88
2023-08-11T04:34:16.578Z,-23624.50
2023-08-11T04:36:19.219Z,-23627.03
2023-08-11T04:38:21.240Z,-23633.34
2023-08-11T04:40:24.473Z,-23630.66
2023-08-11T04:42:28.781Z,-23633.97
2023-08-11T04:44:31.502Z,-23636.50
2023-08-11T04:46:34.249Z,-23633.66
2023-08-11T04:48:36.969Z,-23633.97
2023-08-11T04:50:39.739Z,-23637.28
2023-08-11T04:52:43.894Z,-23633.66
2023-08-11T04:54:48.856Z,-23639.66
2023-08-11T04:56:51.790Z,-23644.38
2023-08-11T04:58:56.167Z,-23647.53
2023-08-11T05:00:58.840Z,-23649.13
2023-08-11T05:03:01.560Z,-23644.38
2023-08-11T05:05:06.700Z,-23642.97
2023-08-11T05:07:10.278Z,-23639.50
2023-08-11T05:09:14.878Z,-23640.44
2023-08-11T05:11:19.418Z,-23643.13
2023-08-11T05:13:22.852Z,-23647.22
2023-08-11T05:15:27.053Z,-23645.66
2023-08-11T05:17:29.946Z,-23645.78
2023-08-11T05:19:32.829Z,-23641.53
2023-08-11T05:21:37.436Z,-23643.13
2023-08-11T05:23:40.158Z,-23641.53
2023-08-11T05:25:42.909Z,-23642.47
2023-08-11T05:27:46.363Z,-23651.63
2023-08-11T05:29:50.614Z,-23650.38
2023-08-11T05:31:54.778Z,-23652.25
2023-08-11T05:33:58.129Z,-23653.53
2023-08-11T05:36:01.011Z,-23652.59
2023-08-11T05:38:03.876Z,-23650.53
2023-08-11T05:40:09.708Z,-23658.25
2023-08-11T05:42:12.619Z,-23654.78
2023-08-11T05:44:14.428Z,-23665.50
2023-08-11T05:46:17.171Z,-23664.09
2023-08-11T05:48:21.273Z,-23664.56
2023-08-11T05:50:24.064Z,-23673.41
2023-08-11T05:52:26.807Z,-23673.41
2023-08-11T05:54:29.496Z,-23681.59
2023-08-11T05:56:32.177Z,-23680.66
2023-08-11T05:58:35.008Z,-23686.31
2023-08-11T06:00:37.743Z,-23684.75
2023-08-11T06:02:40.646Z,-23687.25
2023-08-11T06:04:45.843Z,-23699.25
2023-08-11T06:06:48.517Z,-23702.06
2023-08-11T06:08:51.336Z,-23704.59
2023-08-11T06:10:55.649Z,-23710.88
2023-08-11T06:12:58.458Z,-23713.88
2023-08-11T06:15:01.108Z,-23712.63
2023-08-11T06:17:04.272Z,-23727.09
2023-08-11T06:19:07.420Z,-23733.84
2023-08-11T06:21:12.182Z,-23738.25
2023-08-11T06:23:14.959Z,-23743.13
2023-08-11T06:25:17.768Z,-23748.94
2023-08-11T06:27:20.463Z,-23757.44
2023-08-11T06:29:23.162Z,-23763.88
2023-08-11T06:31:26.062Z,-23771.13
2023-08-11T06:33:28.823Z,-23777.25
2023-08-11T06:35:30.858Z,-23779.75
2023-08-11T06:37:34.925Z,-23787.63
2023-08-11T06:39:37.839Z,-23782.44
2023-08-11T06:41:40.619Z,-23791.69
2023-08-11T06:43:43.758Z,-23802.69
2023-08-11T06:45:46.854Z,-23809.28
2023-08-11T06:47:49.729Z,-23815.53
2023-08-11T06:49:52.442Z,-23809.91
2023-08-11T06:51:55.134Z,-23837.19
2023-08-11T06:53:59.336Z,-23815.84
2023-08-11T06:56:02.080Z,-23819.47
2023-08-11T06:58:04.370Z,-23815.38
2023-08-11T07:00:08.459Z,-23812.56
2023-08-11T07:02:11.345Z,-23819.00
2023-08-11T07:04:14.098Z,-23813.34
2023-08-11T07:06:17.039Z,-23824.31
2023-08-11T07:08:19.832Z,-23821.97
2023-08-11T07:10:23.909Z,-23841.56
2023-08-11T07:12:25.673Z,-23839.69
2023-08-11T07:14:28.485Z,-23866.31
2023-08-11T07:16:31.311Z,-23854.72
2023-08-11T07:18:33.102Z,-23876.81
2023-08-11T07:20:35.811Z,-23860.06
2023-08-11T07:22:38.491Z,-23874.16
2023-08-11T07:24:40.245Z,-23885.56
2023-08-11T07:26:44.352Z,-23892.63
2023-08-11T07:28:47.674Z,-23926.09
2023-08-11T07:30:50.411Z,-23914.03
2023-08-11T07:32:55.370Z,-23909.19
2023-08-11T07:34:58.531Z,-23920.28
2023-08-11T07:37:01.217Z,-23952.63
2023-08-11T07:39:20.740Z,-23951.06
2023-08-11T07:41:25.311Z,-23946.06
2023-08-11T07:43:29.410Z,-23957.94
2023-08-11T07:45:34.106Z,-23956.38
2023-08-11T07:47:36.939Z,-23980.69
2023-08-11T07:49:39.736Z,-23964.00
2023-08-11T07:51:42.761Z,-23975.72
2023-08-11T07:53:46.437Z,-23968.53
2023-08-11T07:55:49.237Z,-23949.81
2023-08-11T07:57:51.930Z,-23996.44
2023-08-11T07:59:56.010Z,-24014.38
2023-08-11T08:01:57.762Z,-24031.50
2023-08-11T08:04:00.567Z,-24045.50
2023-08-11T08:06:06.110Z,-24066.94
2023-08-11T08:08:09.105Z,-24094.88
2023-08-11T08:10:14.968Z,-24074.72
2023-08-11T08:12:17.980Z,-24075.00
2023-08-11T08:14:21.012Z,-24057.00
2023-08-11T08:16:25.146Z,-24043.94
2023-08-11T08:18:27.855Z,-24037.09
2023-08-11T08:20:32.345Z,-24009.69
2023-08-11T08:22:35.424Z,-24031.00
2023-08-11T08:24:38.173Z,-24029.94
2023-08-11T08:26:40.911Z,-24009.06
2023-08-11T08:28:43.547Z,-24029.00
2023-08-11T08:30:46.328Z,-24035.22
2023-08-11T08:32:50.447Z,-24041.44
2023-08-11T08:34:53.487Z,-23963.53
2023-08-11T08:36:56.274Z,-24010.00
2023-08-11T08:38:59.057Z,-23984.59
2023-08-11T08:41:02.264Z,-24010.78
2023-08-11T08:43:05.815Z,-23999.09
2023-08-11T08:45:10.224Z,-24020.59
2023-08-11T08:47:14.863Z,-24047.66
2023-08-11T08:49:24.354Z,-24002.84
2023-08-11T08:51:27.707Z,-24025.72
2023-08-11T08:53:30.629Z,-24052.78
2023-08-11T08:55:33.541Z,-24072.06
2023-08-11T08:57:36.249Z,-24073.78
2023-08-11T08:59:39.761Z,-24072.06
2023-08-11T09:01:43.230Z,-24119.09
2023-08-11T09:03:47.783Z,-24132.41
2023-08-11T09:05:52.304Z,-24163.41
2023-08-11T09:07:55.077Z,-24083.25
2023-08-11T09:09:57.792Z,-24057.94
2023-08-11T09:12:02.229Z,-24057.94
2023-08-11T09:14:05.784Z,-24140.47
2023-08-11T09:16:08.545Z,-24139.41
2023-08-11T09:18:16.964Z,-24113.03
2023-08-11T09:20:20.740Z,-24159.06
2023-08-11T09:22:26.239Z,-24160.00
2023-08-11T09:24:31.437Z,-24175.00
2023-08-11T09:26:34.108Z,-24129.00
2023-08-11T09:28:36.961Z,-24129.00
2023-08-11T09:30:40.143Z,-24141.41
2023-08-11T09:32:42.895Z,-24095.50
2023-08-11T09:34:46.099Z,-24137.69
2023-08-11T09:36:50.805Z,-24163.09
2023-08-11T09:38:54.862Z,-24159.06
2023-08-11T09:41:01.888Z,-24155.66
2023-08-11T09:43:04.863Z,-24169.28
2023-08-11T09:45:09.824Z,-24181.97
2023-08-11T09:47:21.219Z,-24211.31
2023-08-11T09:49:25.125Z,-24177.00
2023-08-11T09:51:27.012Z,-24153.19
2023-08-11T09:53:31.222Z,-24156.44
2023-08-11T09:55:39.364Z,-24148.22
2023-08-11T09:57:43.305Z,-24162.94
2023-08-11T09:59:47.416Z,-24146.97
2023-08-11T10:01:53.392Z,-24173.16
2023-08-11T10:03:59.279Z,-24089.00
2023-08-11T10:06:02.966Z,-24186.44
2023-08-11T10:08:06.504Z,-24196.03
2023-08-11T10:10:13.219Z,-24209.47
2023-08-11T10:12:18.269Z,-24169.59
2023-08-11T10:14:22.921Z,-24214.72
2023-08-11T10:16:28.895Z,-24169.44
2023-08-11T10:18:33.595Z,-24174.06
2023-08-11T10:20:36.566Z,-24148.22
2023-08-11T10:22:39.732Z,-24125.13
2023-08-11T10:24:44.605Z,-24088.84
2023-08-11T10:26:47.665Z,-24154.56
2023-08-11T10:28:52.441Z,-24186.59
2023-08-11T10:30:58.704Z,-24160.00
2023-08-11T10:33:06.787Z,-24156.91
2023-08-11T10:35:18.883Z,-24145.44
2023-08-11T10:37:25.961Z,-24125.91
2023-08-11T10:39:28.786Z,-24091.78
2023-08-11T10:41:31.947Z,-24145.91
2023-08-11T10:43:36.414Z,-24131.34
2023-08-11T10:45:42.563Z,-24131.50
2023-08-11T10:47:52.917Z,-24096.75
2023-08-11T10:49:56.820Z,-24126.69
2023-08-11T10:52:00.987Z,-24100.16
2023-08-11T10:54:10.295Z,-24096.91
2023-08-11T10:56:14.577Z,-24073.78
2023-08-11T10:58:21.632Z,-24091.94
2023-08-11T11:00:24.311Z,-24092.56
2023-08-11T11:02:28.403Z,-24104.81
2023-08-11T11:04:33.201Z,-24075.16
2023-08-11T11:06:35.991Z,-24097.38
2023-08-11T11:08:38.710Z,-24098.59
2023-08-11T11:10:50.044Z,-24088.06
2023-08-11T11:12:53.690Z,-24078.44
2023-08-11T11:14:56.558Z,-24077.19
2023-08-11T11:17:00.444Z,-24062.28
2023-08-11T11:19:06.986Z,-24061.19
2023-08-11T11:21:09.814Z,-24067.72
2023-08-11T11:23:12.525Z,-24065.84
2023-08-11T11:25:15.261Z,-24063.50
2023-08-11T11:27:18.003Z,-24061.34
2023-08-11T11:29:24.629Z,-24059.16
2023-08-11T11:31:29.190Z,-24060.88
2023-08-11T11:33:31.554Z,-24077.81
2023-08-11T11:35:35.652Z,-24080.75
2023-08-11T11:37:38.730Z,-24066.31
2023-08-11T11:39:40.899Z,-24051.41
2023-08-11T11:41:43.583Z,-24070.34
2023-08-11T11:43:48.442Z,-24074.72
2023-08-11T11:45:53.517Z,-24078.44
2023-08-11T11:47:56.650Z,-24055.75
2023-08-11T11:50:00.409Z,-24080.28
2023-08-11T11:52:04.921Z,-24086.03
2023-08-11T11:54:07.656Z,-24068.66
2023-08-11T11:56:14.162Z,-24073.16
2023-08-11T11:58:17.129Z,-24075.00
2023-08-11T12:00:21.640Z,-24060.72
2023-08-11T12:02:24.379Z,-24072.53
2023-08-11T12:04:27.405Z,-24093.50
2023-08-11T12:06:31.148Z,-24124.06
2023-08-11T12:08:35.909Z,-24098.78
2023-08-11T12:10:38.605Z,-24068.81
2023-08-11T12:12:41.321Z,-24096.75
2023-08-11T12:14:44.050Z,-24075.00
2023-08-11T12:16:46.798Z,-24087.91
2023-08-11T12:18:49.723Z,-24085.59
2023-08-11T12:20:52.589Z,-24089.47
2023-08-11T12:22:55.336Z,-24089.63
2023-08-11T12:24:59.392Z,-24084.97
2023-08-11T12:27:02.243Z,-24078.75
2023-08-11T12:29:06.367Z,-24100.16
2023-08-11T12:31:11.652Z,-24087.28
2023-08-11T12:33:17.266Z,-24081.53
2023-08-11T12:35:20.029Z,-24087.75
2023-08-11T12:37:22.749Z,-24087.75
2023-08-11T12:39:25.575Z,-24099.09
2023-08-11T12:41:29.691Z,-24098.31
2023-08-11T12:43:32.415Z,-24102.34
2023-08-11T12:45:35.091Z,-24122.19
2023-08-11T12:47:37.833Z,-24121.88
2023-08-11T12:49:40.564Z,-24085.88
2023-08-11T12:51:43.279Z,-24117.53
2023-08-11T12:53:46.090Z,-24109.78
2023-08-11T12:55:48.850Z,-24098.47
2023-08-11T12:57:52.228Z,-24094.88
2023-08-11T12:59:54.885Z,-24094.56
2023-08-11T13:01:57.674Z,-24096.44
2023-08-11T13:04:02.633Z,-24109.47
2023-08-11T13:06:05.409Z,-24083.09
2023-08-11T13:08:08.532Z,-24105.91
2023-08-11T13:10:11.815Z,-24124.69
2023-08-11T13:12:14.501Z,-24142.81
2023-08-11T13:14:18.540Z,-24132.56
2023-08-11T13:16:21.332Z,-24106.22
2023-08-11T13:18:24.085Z,-24104.97
2023-08-11T13:20:26.952Z,-24089.31
2023-08-11T13:22:29.666Z,-24095.19
2023-08-11T13:24:33.081Z,-24113.03
2023-08-11T13:26:35.771Z,-24102.97
2023-08-11T13:28:38.486Z,-24100.47
2023-08-11T13:30:43.664Z,-24107.16
2023-08-11T13:32:46.518Z,-24100.00
2023-08-11T13:34:49.349Z,-24110.41
2023-08-11T13:36:52.203Z,-24079.66
2023-08-11T13:38:53.906Z,-24097.84
2023-08-11T13:40:57.497Z,-24094.13
2023-08-11T13:43:00.245Z,-24087.13
2023-08-11T13:45:02.964Z,-24090.69
2023-08-11T13:47:07.282Z,-24089.47
2023-08-11T13:49:10.766Z,-24085.41
2023-08-11T13:51:13.447Z,-24104.50
2023-08-11T13:53:16.541Z,-24101.72
2023-08-11T13:55:19.450Z,-24105.59
2023-08-11T13:57:22.110Z,-24096.13
2023-08-11T13:59:24.868Z,-24099.88
2023-08-11T14:01:27.592Z,-24084.66
2023-08-11T14:03:31.651Z,-24090.84
2023-08-11T14:05:35.700Z,-24099.38
2023-08-11T14:07:38.416Z,-24095.66
2023-08-11T14:09:41.169Z,-24100.63
2023-08-11T14:11:43.927Z,-24102.66
2023-08-11T14:13:46.633Z,-24111.97
2023-08-11T14:15:49.481Z,-24089.91
2023-08-11T14:17:52.258Z,-24094.88
2023-08-11T14:19:56.296Z,-24104.81
2023-08-11T14:21:58.969Z,-24077.81
2023-08-11T14:24:01.647Z,-24083.41
2023-08-11T14:26:04.422Z,-24102.19
2023-08-11T14:28:07.310Z,-24096.28
2023-08-11T14:30:10.850Z,-24106.84
2023-08-11T14:32:23.047Z,-24090.22
2023-08-11T14:34:27.851Z,-24085.88
2023-08-11T14:36:32.124Z,-24107.63
2023-08-11T14:38:34.806Z,-24099.09
2023-08-11T14:40:37.507Z,-24096.75
2023-08-11T14:42:41.343Z,-24100.63
2023-08-11T14:44:44.438Z,-24097.22
2023-08-11T14:46:47.186Z,-24094.28
2023-08-11T14:48:49.914Z,-24089.16
2023-08-11T14:50:52.940Z,-24077.81
2023-08-11T14:52:57.045Z,-24079.97
2023-08-11T14:54:59.771Z,-24094.72
2023-08-11T14:57:02.540Z,-24088.06
2023-08-11T14:59:05.422Z,-24093.03
2023-08-11T15:01:08.321Z,-24091.16
2023-08-11T15:03:11.134Z,-24093.66
2023-08-11T15:05:14.020Z,-24082.47
2023-08-11T15:07:16.922Z,-24089.16
2023-08-11T15:09:21.033Z,-24084.66
2023-08-11T15:11:23.781Z,-24083.72
2023-08-11T15:13:26.521Z,-24082.78
2023-08-11T15:15:29.393Z,-24090.84
2023-08-11T15:17:32.158Z,-24094.72
2023-08-11T15:19:34.879Z,-24085.88
2023-08-11T15:21:37.583Z,-24090.53
2023-08-11T15:23:40.572Z,-24088.38
2023-08-11T15:25:44.644Z,-24090.84
2023-08-11T15:27:47.349Z,-24085.88
2023-08-11T15:29:50.033Z,-24086.81
2023-08-11T15:31:54.606Z,-24089.91
2023-08-11T15:33:57.675Z,-24087.59
2023-08-11T15:36:00.468Z,-24090.22
2023-08-11T15:38:03.124Z,-24098.78
2023-08-11T15:40:07.149Z,-24092.41
2023-08-11T15:42:11.474Z,-24090.22
2023-08-11T15:44:14.386Z,-24086.81
2023-08-11T15:46:17.166Z,-24081.22
2023-08-11T15:48:19.923Z,-24088.06
2023-08-11T15:50:22.681Z,-24089.16
2023-08-11T15:52:25.456Z,-24089.00
2023-08-11T15:54:27.170Z,-24090.84
2023-08-11T15:56:29.912Z,-24084.03
2023-08-11T15:58:33.933Z,-24087.75
2023-08-11T16:00:38.629Z,-24088.38
2023-08-11T16:02:40.718Z,-24088.84
2023-08-11T16:04:43.531Z,-24088.22
2023-08-11T16:06:46.288Z,-24088.38
2023-08-11T16:08:48.986Z,-24088.69
2023-08-11T16:10:51.681Z,-24080.59
2023-08-11T16:12:54.507Z,-24085.25
2023-08-11T16:14:58.659Z,-24084.50
2023-08-11T16:17:01.401Z,-24081.84
2023-08-11T16:19:04.135Z,-24076.41
2023-08-11T16:21:06.905Z,-24078.91
2023-08-11T16:23:09.640Z,-24077.81
2023-08-11T16:25:12.424Z,-24081.22
2023-08-11T16:27:15.099Z,-24075.94
2023-08-11T16:29:17.861Z,-24071.59
2023-08-11T16:31:21.980Z,-24071.59
2023-08-11T16:33:24.705Z,-24068.34
2023-08-11T16:35:27.545Z,-24065.38
2023-08-11T16:37:31.064Z,-24068.50
2023-08-11T16:39:33.819Z,-24071.28
2023-08-11T16:41:36.539Z,-24068.19
2023-08-11T16:43:39.191Z,-24073.63
2023-08-11T16:45:40.916Z,-24070.19
2023-08-11T16:47:44.968Z,-24075.31
2023-08-11T16:49:47.639Z,-24069.56
2023-08-11T16:51:50.368Z,-24068.50
2023-08-11T16:53:53.049Z,-24067.25
2023-08-11T16:55:55.761Z,-24064.59
2023-08-11T16:57:58.486Z,-24062.28
2023-08-11T17:00:01.264Z,-24067.25
2023-08-11T17:02:03.951Z,-24060.41
2023-08-11T17:04:08.485Z,-24058.69
2023-08-11T17:06:14.114Z,-24054.34
2023-08-11T17:08:16.802Z,-24055.13
2023-08-11T17:10:19.555Z,-24054.34
2023-08-11T17:12:22.315Z,-24053.56
2023-08-11T17:14:25.088Z,-24052.78
2023-08-11T17:16:30.053Z,-24050.31
2023-08-11T17:18:31.875Z,-24049.22
2023-08-11T17:20:37.034Z,-24047.19
2023-08-11T17:22:39.698Z,-24046.41
2023-08-11T17:24:42.644Z,-24045.00
2023-08-11T17:26:45.368Z,-24044.09
2023-08-11T17:28:48.964Z,-24041.75
2023-08-11T17:30:50.744Z,-24044.09
2023-08-11T17:32:53.424Z,-24039.56
2023-08-11T17:34:58.606Z,-24035.84
2023-08-11T17:37:03.355Z,-24039.88
2023-08-11T17:39:07.337Z,-24036.00
2023-08-11T17:41:10.604Z,-24038.03
2023-08-11T17:43:13.304Z,-24030.72
2023-08-11T17:45:16.036Z,-24033.03
2023-08-11T17:47:18.733Z,-24027.75
2023-08-11T17:49:21.393Z,-24029.00
2023-08-11T17:51:24.314Z,-24026.34
2023-08-11T17:53:28.379Z,-24021.53
2023-08-11T17:55:31.134Z,-24020.44
2023-08-11T17:57:33.860Z,-24015.28
2023-08-11T17:59:36.768Z,-24012.81
2023-08-11T18:01:39.896Z,-24006.09
2023-08-11T18:03:41.649Z,-24009.84
2023-08-11T18:05:44.709Z,-24007.03
2023-08-11T18:07:47.488Z,-24004.69
2023-08-11T18:09:52.113Z,-24003.47
2023-08-11T18:11:54.804Z,-24004.84
2023-08-11T18:13:57.862Z,-24003.16
2023-08-11T18:16:00.557Z,-24000.34
2023-08-11T18:18:03.276Z,-24001.44
2023-08-11T18:20:07.586Z,-23997.53
2023-08-11T18:22:10.464Z,-23995.66
2023-08-11T18:24:13.269Z,-23993.50
2023-08-11T18:26:18.063Z,-23987.88
2023-08-11T18:28:20.808Z,-23987.41
2023-08-11T18:30:23.674Z,-23984.44
2023-08-11T18:32:26.430Z,-23981.78
2023-08-11T18:34:29.154Z,-23989.13
2023-08-11T18:36:31.859Z,-23982.72
2023-08-11T18:38:33.691Z,-23976.66
2023-08-11T18:40:36.428Z,-23974.47
2023-08-11T18:42:40.440Z,-23970.25
2023-08-11T18:44:43.317Z,-23966.38
2023-08-11T18:46:46.115Z,-23964.63
2023-08-11T18:48:49.796Z,-23963.22
2023-08-11T18:50:53.176Z,-23969.78
2023-08-11T18:52:55.895Z,-23964.00
2023-08-11T18:54:58.588Z,-23962.31
2023-08-11T18:57:01.294Z,-23963.06
2023-08-11T18:59:05.361Z,-23956.38
2023-08-11T19:01:08.145Z,-23957.63
2023-08-11T19:03:10.977Z,-23958.56
2023-08-11T19:05:13.790Z,-23954.50
2023-08-11T19:07:15.508Z,-23952.31
2023-08-11T19:09:18.245Z,-23955.44
2023-08-11T19:11:23.574Z,-23952.47
2023-08-11T19:13:26.292Z,-23951.69
2023-08-11T19:15:30.579Z,-23948.56
2023-08-11T19:17:33.273Z,-23948.56
2023-08-11T19:19:36.016Z,-23950.44
2023-08-11T19:21:38.825Z,-23947.16
2023-08-11T19:23:41.502Z,-23946.38
2023-08-11T19:25:44.394Z,-23944.34
2023-08-11T19:27:47.057Z,-23944.50
2023-08-11T19:29:50.482Z,-23945.75
2023-08-11T19:31:54.553Z,-23946.06
2023-08-11T19:33:57.293Z,-23944.50
2023-08-11T19:36:00.793Z,-23940.75
2023-08-11T19:38:04.821Z,-23941.69
2023-08-11T19:40:08.689Z,-23937.63
2023-08-11T19:42:11.665Z,-23939.03
2023-08-11T19:44:15.980Z,-23940.44
2023-08-11T19:46:18.663Z,-23937.63
2023-08-11T19:48:22.775Z,-23937.78
2023-08-11T19:50:25.516Z,-23937.00
2023-08-11T19:52:28.253Z,-23937.94
2023-08-11T19:54:30.931Z,-23935.75
2023-08-11T19:56:33.713Z,-23934.66
2023-08-11T19:58:36.382Z,-23934.19
2023-08-11T20:00:39.091Z,-23937.47
2023-08-11T20:02:42.074Z,-23935.75
2023-08-11T20:04:46.181Z,-23932.78
2023-08-11T20:06:49.028Z,-23934.34
2023-08-11T20:08:51.840Z,-23931.69
2023-08-11T20:10:54.905Z,-23929.66
2023-08-11T20:12:57.585Z,-23928.88
2023-08-11T20:15:00.250Z,-23929.66
2023-08-11T20:17:04.589Z,-23924.50
2023-08-11T20:19:07.452Z,-23924.50
2023-08-11T20:21:11.532Z,-23929.50
2023-08-11T20:23:14.297Z,-23926.69
2023-08-11T20:25:17.126Z,-23925.28
2023-08-11T20:27:22.744Z,-23926.38
2023-08-11T20:29:26.124Z,-23927.00
2023-08-11T20:31:32.589Z,-23924.50
2023-08-11T20:33:35.579Z,-23924.66
2023-08-11T20:35:38.276Z,-23921.06
2023-08-11T20:37:42.367Z,-23918.72
2023-08-11T20:39:45.047Z,-23918.88
2023-08-11T20:41:47.766Z,-23919.81
2023-08-11T20:43:49.772Z,-23919.50
2023-08-11T20:45:53.075Z,-23916.06
2023-08-11T20:47:55.976Z,-23915.75
2023-08-11T20:49:58.914Z,-23916.69
2023-08-11T20:52:01.914Z,-23919.50
2023-08-11T20:54:06.453Z,-23921.06
2023-08-11T20:56:10.722Z,-23916.38
2023-08-11T20:58:12.492Z,-23915.91
2023-08-11T21:00:16.341Z,-23911.06
2023-08-11T21:02:19.173Z,-23909.97
2023-08-11T21:04:22.050Z,-23905.44
2023-08-11T21:06:24.873Z,-23907.31
2023-08-11T21:08:27.641Z,-23908.25
2023-08-11T21:10:31.728Z,-23906.84
2023-08-11T21:12:34.617Z,-23903.56
2023-08-11T21:14:37.370Z,-23901.06
2023-08-11T21:16:40.824Z,-23896.84
2023-08-11T21:18:43.766Z,-23895.75
2023-08-11T21:20:46.623Z,-23892.94
2023-08-11T21:22:49.304Z,-23896.84
2023-08-11T21:24:52.085Z,-23896.53
2023-08-11T21:26:56.249Z,-23891.38
2023-08-11T21:28:59.023Z,-23896.69
2023-08-11T21:31:16.947Z,-23898.25
2023-08-11T21:33:21.134Z,-23900.75
2023-08-11T21:37:26.291Z,-23888.56
2023-08-11T21:39:29.061Z,-23893.25
2023-08-11T21:41:32.524Z,-23894.81
2023-08-11T21:43:36.597Z,-23893.09
2023-08-11T21:45:39.952Z,-23892.63
2023-08-11T21:47:42.708Z,-23888.88
2023-08-11T21:49:45.471Z,-23888.56
2023-08-11T21:51:48.132Z,-23888.88
2023-08-11T21:53:50.950Z,-23889.19
2023-08-11T21:55:53.667Z,-23879.78
2023-08-11T21:57:58.102Z,-23881.34
2023-08-11T22:00:02.510Z,-23890.91
2023-08-11T22:02:04.508Z,-23884.78
2023-08-11T22:04:07.740Z,-23889.81
2023-08-11T22:06:13.722Z,-23891.38
2023-08-11T22:08:16.426Z,-23886.38
2023-08-11T22:10:19.247Z,-23875.72
2023-08-11T22:12:21.919Z,-23889.19
2023-08-11T22:14:24.686Z,-23887.00
2023-08-11T22:16:27.878Z,-23884.16
2023-08-11T22:18:30.629Z,-23881.66
2023-08-11T22:20:34.312Z,-23883.84
2023-08-11T22:22:36.985Z,-23884.66
2023-08-11T22:24:41.522Z,-23878.53
2023-08-11T22:26:43.715Z,-23877.91
2023-08-11T22:28:46.467Z,-23887.31
2023-08-11T22:30:51.184Z,-23896.22
2023-08-11T22:32:55.357Z,-23894.66
2023-08-11T22:34:58.191Z,-23882.75
2023-08-11T22:37:00.889Z,-23883.22
2023-08-11T22:39:04.355Z,-23889.50
2023-08-11T22:41:07.059Z,-23884.47
2023-08-11T22:43:09.730Z,-23885.56
2023-08-11T22:45:11.503Z,-23881.34
2023-08-11T22:47:14.526Z,-23877.28
2023-08-11T22:49:18.675Z,-23873.69
2023-08-11T22:51:21.713Z,-23877.91
2023-08-11T22:53:23.502Z,-23876.81
2023-08-11T22:55:26.230Z,-23876.03
2023-08-11T22:57:28.876Z,-23873.22
2023-08-11T22:59:31.580Z,-23864.75
2023-08-11T23:01:34.333Z,-23866.94
2023-08-11T23:03:37.042Z,-23863.66
2023-08-11T23:05:41.087Z,-23865.38
2023-08-11T23:07:43.761Z,-23862.09
2023-08-11T23:09:46.775Z,-23864.75
2023-08-11T23:11:49.489Z,-23859.75
2023-08-11T23:13:52.162Z,-23862.56
2023-08-11T23:15:55.099Z,-23861.16
2023-08-11T23:17:58.688Z,-23859.44
2023-08-11T23:20:01.897Z,-23854.56
2023-08-11T23:22:06.046Z,-23849.56
2023-08-11T23:24:09.942Z,-23850.50
2023-08-11T23:26:11.701Z,-23849.56
2023-08-11T23:28:14.424Z,-23846.44
2023-08-11T23:30:17.196Z,-23845.34
2023-08-11T23:32:19.974Z,-23845.66